createdAt,value
2023-02-22T00:00:18.530Z,3.53
2023-02-22T00:02:46.228Z,3.52
2023-02-22T00:05:15.983Z,3.48
2023-02-22T00:07:43.895Z,3.41
2023-02-22T00:10:13.304Z,3.36
2023-02-22T00:12:40.833Z,3.47
2023-02-22T00:15:08.671Z,3.50
2023-02-22T00:17:35.758Z,3.54
2023-02-22T00:20:05.344Z,3.38
2023-02-22T00:22:31.944Z,3.25
2023-02-22T00:24:58.374Z,3.24
2023-02-22T00:27:25.606Z,3.27
2023-02-22T00:29:52.377Z,4.30
2023-02-22T00:32:18.828Z,5.27
2023-02-22T00:34:47.176Z,5.52
2023-02-22T00:37:13.535Z,5.41
2023-02-22T00:39:40.068Z,5.31
2023-02-22T00:42:06.459Z,5.40
2023-02-22T00:44:33.544Z,5.42
2023-02-22T00:46:59.929Z,5.53
2023-02-22T00:49:26.331Z,5.52
2023-02-22T00:51:54.155Z,5.38
2023-02-22T00:54:20.619Z,5.57
2023-02-22T00:56:47.057Z,5.62
2023-02-22T00:59:13.472Z,5.61
2023-02-22T01:01:40.536Z,5.31
2023-02-22T01:04:06.982Z,5.41
2023-02-22T01:06:33.774Z,5.54
2023-02-22T01:09:01.739Z,5.34
2023-02-22T01:11:28.162Z,5.20
2023-02-22T01:13:55.849Z,5.06
2023-02-22T01:16:22.524Z,4.94
2023-02-22T01:18:49.782Z,4.99
2023-02-22T01:21:16.679Z,5.15
2023-02-22T01:23:44.563Z,5.42
2023-02-22T01:26:11.379Z,5.45
2023-02-22T01:28:38.294Z,5.47
2023-02-22T01:31:05.589Z,5.58
2023-02-22T01:33:33.148Z,5.52
2023-02-22T01:36:00.273Z,5.30
2023-02-22T01:38:27.340Z,5.29
2023-02-22T01:40:54.524Z,5.10
2023-02-22T01:43:23.903Z,5.11
2023-02-22T01:45:57.659Z,5.09
2023-02-22T01:48:39.298Z,5.05
2023-02-22T01:51:12.291Z,5.01
2023-02-22T01:53:44.734Z,5.01
2023-02-22T01:56:14.196Z,5.16
2023-02-22T01:58:43.589Z,5.10
2023-02-22T02:01:11.356Z,4.87
2023-02-22T02:03:40.313Z,4.93
2023-02-22T02:06:12.473Z,4.78
2023-02-22T02:08:49.059Z,4.61
2023-02-22T02:11:19.087Z,4.48
2023-02-22T02:13:45.892Z,4.42
2023-02-22T02:16:12.498Z,4.33
2023-02-22T02:18:39.569Z,4.31
2023-02-22T02:21:38.061Z,4.40
2023-02-22T02:24:43.836Z,4.47
2023-02-22T02:27:13.508Z,4.46
2023-02-22T02:30:21.869Z,4.48
2023-02-22T02:32:55.147Z,4.44
2023-02-22T02:35:31.844Z,4.64
2023-02-22T02:38:05.005Z,4.75
2023-02-22T02:40:38.676Z,5.01
2023-02-22T02:43:13.127Z,5.02
2023-02-22T02:45:46.519Z,5.03
2023-02-22T02:48:16.952Z,5.17
2023-02-22T02:50:46.872Z,5.24
2023-02-22T02:53:17.379Z,5.19
2023-02-22T02:55:43.979Z,5.20
2023-02-22T02:58:17.818Z,5.07
2023-02-22T03:00:44.897Z,5.16
2023-02-22T03:03:33.299Z,5.15
2023-02-22T03:06:22.590Z,5.12
2023-02-22T03:08:56.834Z,4.83
2023-02-22T03:11:30.678Z,4.57
2023-02-22T03:14:06.547Z,4.56
2023-02-22T03:16:41.663Z,4.51
2023-02-22T03:19:16.994Z,4.41
2023-02-22T03:21:50.032Z,4.21
2023-02-22T03:24:19.672Z,4.61
2023-02-22T03:26:51.833Z,4.66
2023-02-22T03:29:23.770Z,4.90
2023-02-22T03:31:55.569Z,5.10
2023-02-22T03:34:29.145Z,4.99
2023-02-22T03:37:01.682Z,5.05
2023-02-22T03:39:30.438Z,5.07
2023-02-22T03:42:01.047Z,4.83
2023-02-22T03:44:31.475Z,4.73
2023-02-22T03:47:01.675Z,4.58
2023-02-22T03:49:34.569Z,4.48
2023-02-22T03:52:01.742Z,4.67
2023-02-22T03:54:29.671Z,4.58
2023-02-22T03:57:04.851Z,4.32
2023-02-22T03:59:34.115Z,4.13
2023-02-22T04:02:01.310Z,3.78
2023-02-22T04:04:27.907Z,3.70
2023-02-22T04:06:55.840Z,3.62
2023-02-22T04:09:22.936Z,3.45
2023-02-22T04:11:49.507Z,3.43
2023-02-22T04:14:16.395Z,3.37
2023-02-22T04:16:43.231Z,3.59
2023-02-22T04:19:10.169Z,3.43
2023-02-22T04:21:38.433Z,3.42
2023-02-22T04:24:07.590Z,3.65
2023-02-22T04:26:34.216Z,3.65
2023-02-22T04:29:03.515Z,3.76
2023-02-22T04:31:36.053Z,3.82
2023-02-22T04:34:03.000Z,3.58
2023-02-22T04:36:32.892Z,3.62
2023-02-22T04:39:00.553Z,3.75
2023-02-22T04:41:30.703Z,3.64
2023-02-22T04:43:57.269Z,3.61
2023-02-22T04:46:25.624Z,4.03
2023-02-22T04:48:52.932Z,4.28
2023-02-22T04:51:21.912Z,4.51
2023-02-22T04:53:58.944Z,4.39
2023-02-22T04:56:25.523Z,3.95
2023-02-22T04:58:53.714Z,3.79
2023-02-22T05:01:20.152Z,3.42
2023-02-22T05:03:47.145Z,3.16
2023-02-22T05:06:13.533Z,3.11
2023-02-22T05:08:39.982Z,3.24
2023-02-22T05:11:06.395Z,3.45
2023-02-22T05:13:32.801Z,3.54
2023-02-22T05:15:59.909Z,3.38
2023-02-22T05:18:26.344Z,3.29
2023-02-22T05:20:52.834Z,3.54
2023-02-22T05:23:19.229Z,3.88
2023-02-22T05:25:45.666Z,3.87
2023-02-22T05:28:14.997Z,3.88
2023-02-22T05:30:41.676Z,3.74
2023-02-22T05:33:09.773Z,3.42
2023-02-22T05:35:36.684Z,3.58
2023-02-22T05:38:03.404Z,3.56
2023-02-22T05:40:30.551Z,3.55
2023-02-22T05:42:57.994Z,3.55
2023-02-22T05:45:26.807Z,3.44
2023-02-22T05:47:54.374Z,3.38
2023-02-22T05:50:21.794Z,3.52
2023-02-22T05:52:48.775Z,3.45
2023-02-22T05:55:17.689Z,3.53
2023-02-22T05:57:44.249Z,3.55
2023-02-22T06:00:15.137Z,3.66
2023-02-22T06:02:42.288Z,3.98
2023-02-22T06:05:08.895Z,3.86
2023-02-22T06:07:36.048Z,3.87
2023-02-22T06:10:02.825Z,3.98
2023-02-22T06:12:30.362Z,4.15
2023-02-22T06:14:58.446Z,4.04
2023-02-22T06:17:24.850Z,3.72
2023-02-22T06:19:51.515Z,3.83
2023-02-22T06:22:19.240Z,3.79
2023-02-22T06:24:46.467Z,4.20
2023-02-22T06:27:15.726Z,4.48
2023-02-22T06:29:44.999Z,4.56
2023-02-22T06:32:11.500Z,4.64
2023-02-22T06:34:38.007Z,4.49
2023-02-22T06:37:04.396Z,4.71
2023-02-22T06:39:30.828Z,4.67
2023-02-22T06:41:59.569Z,4.83
2023-02-22T06:44:26.163Z,4.84
2023-02-22T06:46:52.582Z,4.48
2023-02-22T06:49:20.139Z,4.43
2023-02-22T06:51:47.309Z,4.15
2023-02-22T06:54:13.972Z,4.11
2023-02-22T06:56:40.453Z,3.91
2023-02-22T06:59:07.718Z,3.93
2023-02-22T07:01:34.191Z,3.78
2023-02-22T07:04:00.689Z,3.62
2023-02-22T07:06:27.374Z,3.96
2023-02-22T07:08:54.244Z,4.04
2023-02-22T07:11:20.699Z,4.21
2023-02-22T07:13:47.105Z,4.27
2023-02-22T07:16:14.265Z,4.41
2023-02-22T07:18:40.859Z,4.44
2023-02-22T07:21:07.368Z,4.53
2023-02-22T07:23:33.787Z,4.66
2023-02-22T07:26:00.670Z,5.00
2023-02-22T07:28:27.303Z,5.30
2023-02-22T07:30:53.893Z,5.43
2023-02-22T07:33:20.981Z,5.59
2023-02-22T07:35:49.116Z,5.69
2023-02-22T07:38:17.222Z,5.98
2023-02-22T07:40:44.458Z,6.18
2023-02-22T07:43:15.960Z,6.32
2023-02-22T07:45:43.909Z,6.46
2023-02-22T07:48:12.111Z,6.55
2023-02-22T07:50:40.306Z,6.75
2023-02-22T07:53:11.067Z,6.91
2023-02-22T07:55:37.488Z,7.04
2023-02-22T07:58:06.500Z,7.15
2023-02-22T08:00:34.796Z,7.26
2023-02-22T08:03:02.474Z,7.53
2023-02-22T08:05:30.399Z,7.69
2023-02-22T08:07:57.720Z,7.80
2023-02-22T08:10:26.021Z,7.89
2023-02-22T08:12:53.663Z,8.02
2023-02-22T08:15:23.503Z,8.04
2023-02-22T08:17:50.104Z,8.19
2023-02-22T08:20:16.938Z,8.35
2023-02-22T08:22:43.591Z,8.32
2023-02-22T08:25:10.961Z,8.40
2023-02-22T08:27:37.344Z,8.68
2023-02-22T08:30:05.719Z,8.89
2023-02-22T08:32:32.305Z,9.48
2023-02-22T08:34:58.826Z,9.53
2023-02-22T08:37:25.250Z,9.32
2023-02-22T08:39:52.984Z,9.15
2023-02-22T08:42:20.925Z,9.16
2023-02-22T08:44:47.493Z,9.84
2023-02-22T08:47:13.864Z,9.86
2023-02-22T08:49:41.380Z,10.22
2023-02-22T08:52:08.162Z,10.46
2023-02-22T08:54:34.586Z,11.13
2023-02-22T08:57:00.970Z,11.20
2023-02-22T08:59:27.993Z,11.26
2023-02-22T09:01:54.738Z,11.06
2023-02-22T09:04:21.450Z,11.30
2023-02-22T09:06:50.981Z,11.23
2023-02-22T09:09:20.271Z,11.36
2023-02-22T09:11:47.230Z,11.35
2023-02-22T09:14:14.645Z,11.21
2023-02-22T09:16:42.298Z,11.31
2023-02-22T09:19:08.699Z,11.51
2023-02-22T09:21:35.114Z,11.72
2023-02-22T09:24:07.590Z,11.76
2023-02-22T09:26:34.317Z,11.85
2023-02-22T09:29:01.273Z,11.83
2023-02-22T09:31:27.789Z,11.82
2023-02-22T09:33:55.178Z,12.09
2023-02-22T09:36:21.563Z,12.05
2023-02-22T09:38:47.966Z,12.00
2023-02-22T09:41:31.542Z,12.10
2023-02-22T09:44:15.053Z,12.53
2023-02-22T09:46:45.047Z,12.85
2023-02-22T09:49:20.797Z,12.68
2023-02-22T09:51:52.413Z,12.22
2023-02-22T09:54:24.490Z,12.74
2023-02-22T09:56:55.105Z,12.99
2023-02-22T09:59:26.380Z,12.88
2023-02-22T10:01:59.155Z,12.80
2023-02-22T10:04:40.532Z,12.68
2023-02-22T10:07:17.570Z,12.55
2023-02-22T10:09:45.959Z,12.56
2023-02-22T10:12:22.633Z,12.73
2023-02-22T10:15:08.635Z,12.53
2023-02-22T10:17:45.140Z,12.91
2023-02-22T10:20:37.581Z,12.98
2023-02-22T10:23:13.924Z,12.99
2023-02-22T10:25:44.893Z,13.29
2023-02-22T10:28:17.843Z,13.10
2023-02-22T10:30:54.103Z,13.25
2023-02-22T10:33:22.261Z,13.34
2023-02-22T10:35:52.650Z,13.39
2023-02-22T10:38:22.791Z,13.68
2023-02-22T10:40:54.384Z,13.91
2023-02-22T10:43:22.661Z,13.92
2023-02-22T10:45:53.124Z,13.92
2023-02-22T10:48:20.867Z,14.22
2023-02-22T10:50:49.696Z,14.53
2023-02-22T10:53:16.988Z,14.87
2023-02-22T10:56:12.575Z,14.63
2023-02-22T10:58:45.592Z,14.51
2023-02-22T11:01:35.055Z,14.81
2023-02-22T11:04:08.514Z,15.13
2023-02-22T11:06:37.287Z,15.39
2023-02-22T11:09:17.179Z,15.38
2023-02-22T11:11:45.622Z,15.06
2023-02-22T11:14:13.751Z,15.09
2023-02-22T11:16:42.810Z,15.20
2023-02-22T11:19:17.824Z,15.34
2023-02-22T11:21:44.569Z,15.38
2023-02-22T11:24:14.920Z,15.14
2023-02-22T11:26:43.518Z,15.09
2023-02-22T11:29:13.630Z,15.43
2023-02-22T11:31:45.163Z,15.54
2023-02-22T11:34:26.992Z,15.56
2023-02-22T11:36:53.677Z,15.67
2023-02-22T11:39:26.637Z,15.86
2023-02-22T11:41:55.099Z,15.65
2023-02-22T11:44:25.789Z,15.77
2023-02-22T11:46:55.325Z,15.99
2023-02-22T11:49:23.948Z,16.27
2023-02-22T11:52:06.779Z,16.44
2023-02-22T11:55:06.706Z,16.24
2023-02-22T11:57:46.291Z,16.13
2023-02-22T12:00:28.497Z,15.78
2023-02-22T12:03:23.839Z,15.80
2023-02-22T12:06:06.335Z,16.03
2023-02-22T12:08:46.234Z,15.82
2023-02-22T12:11:21.472Z,15.81
2023-02-22T12:14:05.439Z,16.02
2023-02-22T12:16:43.441Z,16.23
2023-02-22T12:19:19.709Z,16.33
2023-02-22T12:21:52.687Z,16.56
2023-02-22T12:24:22.576Z,16.94
2023-02-22T12:26:53.470Z,16.73
2023-02-22T12:29:28.041Z,16.39
2023-02-22T12:31:59.715Z,16.33
2023-02-22T12:34:32.755Z,16.30
2023-02-22T12:37:09.520Z,16.19
2023-02-22T12:39:52.779Z,16.14
2023-02-22T12:42:27.124Z,16.09
2023-02-22T12:44:57.846Z,16.35
2023-02-22T12:47:33.999Z,16.67
2023-02-22T12:50:11.250Z,17.12
2023-02-22T12:52:44.481Z,17.47
2023-02-22T12:55:16.337Z,17.53
2023-02-22T12:57:51.294Z,17.00
2023-02-22T13:00:47.144Z,16.64
2023-02-22T13:03:30.172Z,16.63
2023-02-22T13:06:08.411Z,16.22
2023-02-22T13:08:41.290Z,16.39
2023-02-22T13:11:17.707Z,16.25
2023-02-22T13:13:56.113Z,16.60
2023-02-22T13:16:36.835Z,17.00
2023-02-22T13:19:12.466Z,17.30
2023-02-22T13:21:46.507Z,17.27
2023-02-22T13:24:22.833Z,17.48
2023-02-22T13:26:53.209Z,17.33
2023-02-22T13:29:27.660Z,17.19
2023-02-22T13:32:13.324Z,17.42
2023-02-22T13:34:56.088Z,17.57
2023-02-22T13:37:45.224Z,17.69
2023-02-22T13:40:46.172Z,18.03
2023-02-22T13:43:45.779Z,18.51
2023-02-22T13:46:39.602Z,18.42
2023-02-22T13:49:35.787Z,17.81
2023-02-22T13:52:06.891Z,17.06
2023-02-22T13:54:40.689Z,16.56
2023-02-22T13:57:19.666Z,16.69
2023-02-22T13:59:46.745Z,16.53
2023-02-22T14:02:53.665Z,16.13
2023-02-22T14:05:50.293Z,15.94
2023-02-22T14:08:41.299Z,16.29
2023-02-22T14:11:56.325Z,16.36
2023-02-22T14:14:24.066Z,16.20
2023-02-22T14:17:25.713Z,16.65
2023-02-22T14:20:19.484Z,16.69
2023-02-22T14:22:48.604Z,16.55
2023-02-22T14:25:39.890Z,16.21
2023-02-22T14:28:09.077Z,15.99
2023-02-22T14:30:39.330Z,15.72
2023-02-22T14:33:41.253Z,15.72
2023-02-22T14:36:09.152Z,15.59
2023-02-22T14:38:36.591Z,15.29
2023-02-22T14:41:03.607Z,15.26
2023-02-22T14:43:30.792Z,15.21
2023-02-22T14:46:00.645Z,15.15
2023-02-22T14:48:38.469Z,15.17
2023-02-22T14:51:21.616Z,15.06
2023-02-22T14:53:53.670Z,14.88
2023-02-22T14:56:23.795Z,14.82
2023-02-22T14:58:56.212Z,14.80
2023-02-22T15:01:44.478Z,14.70
2023-02-22T15:04:20.853Z,14.64
2023-02-22T15:06:48.116Z,14.53
2023-02-22T15:09:23.108Z,14.50
2023-02-22T15:11:51.741Z,14.43
2023-02-22T15:14:26.238Z,14.47
2023-02-22T15:16:56.172Z,14.53
2023-02-22T15:19:26.558Z,14.46
2023-02-22T15:21:55.512Z,14.54
2023-02-22T15:24:25.732Z,14.37
2023-02-22T15:27:01.622Z,14.39
2023-02-22T15:29:35.063Z,14.28
2023-02-22T15:32:01.678Z,14.28
2023-02-22T15:34:30.943Z,14.28
2023-02-22T15:37:21.595Z,14.26
2023-02-22T15:39:48.779Z,14.24
2023-02-22T15:42:20.090Z,14.19
2023-02-22T15:44:48.348Z,14.20
2023-02-22T15:47:18.654Z,14.16
2023-02-22T15:49:45.922Z,14.16
2023-02-22T15:52:20.367Z,14.07
2023-02-22T15:54:50.440Z,14.00
2023-02-22T15:57:19.926Z,14.01
2023-02-22T15:59:52.261Z,13.78
2023-02-22T16:02:37.341Z,13.71
2023-02-22T16:05:07.880Z,13.63
2023-02-22T16:07:41.021Z,13.61
2023-02-22T16:10:22.333Z,13.47
2023-02-22T16:12:49.316Z,13.40
2023-02-22T16:15:18.453Z,13.32
2023-02-22T16:18:00.898Z,13.21
2023-02-22T16:20:35.521Z,13.05
2023-02-22T16:23:22.842Z,12.98
2023-02-22T16:26:18.021Z,12.83
2023-02-22T16:28:51.312Z,12.72
2023-02-22T16:31:22.078Z,12.69
2023-02-22T16:33:50.340Z,12.57
2023-02-22T16:36:18.402Z,12.45
2023-02-22T16:38:47.625Z,12.35
2023-02-22T16:41:19.277Z,12.32
2023-02-22T16:43:50.415Z,12.13
2023-02-22T16:46:18.146Z,12.06
2023-02-22T16:48:46.018Z,11.98
2023-02-22T16:51:20.682Z,11.98
2023-02-22T16:53:48.244Z,12.14
2023-02-22T16:56:18.318Z,12.06
2023-02-22T16:58:46.246Z,11.95
2023-02-22T17:01:12.781Z,11.89
2023-02-22T17:03:39.238Z,11.77
2023-02-22T17:06:06.237Z,11.63
2023-02-22T17:08:32.692Z,11.37
2023-02-22T17:10:59.975Z,11.36
2023-02-22T17:13:28.516Z,11.18
2023-02-22T17:15:55.409Z,11.05
2023-02-22T17:18:23.447Z,11.05
2023-02-22T17:20:50.997Z,11.10
2023-02-22T17:23:18.401Z,10.97
2023-02-22T17:25:48.537Z,10.87
2023-02-22T17:28:15.236Z,10.75
2023-02-22T17:30:44.415Z,10.65
2023-02-22T17:33:15.255Z,10.66
2023-02-22T17:35:41.833Z,10.89
2023-02-22T17:38:09.071Z,10.75
2023-02-22T17:40:37.237Z,10.79
2023-02-22T17:43:07.297Z,10.83
2023-02-22T17:45:35.510Z,10.75
2023-02-22T17:48:02.665Z,10.71
2023-02-22T17:50:30.956Z,10.67
2023-02-22T17:53:00.175Z,10.56
2023-02-22T17:55:27.248Z,10.40
2023-02-22T17:57:57.558Z,10.27
2023-02-22T18:00:32.575Z,10.21
2023-02-22T18:03:00.769Z,10.21
2023-02-22T18:05:28.396Z,10.32
2023-02-22T18:07:54.973Z,10.24
2023-02-22T18:10:21.672Z,10.10
2023-02-22T18:12:48.282Z,9.87
2023-02-22T18:15:16.788Z,9.73
2023-02-22T18:17:44.798Z,9.57
2023-02-22T18:20:11.923Z,9.65
2023-02-22T18:22:41.986Z,9.62
2023-02-22T18:25:08.817Z,9.44
2023-02-22T18:27:35.594Z,9.54
2023-02-22T18:30:02.031Z,9.41
2023-02-22T18:32:31.164Z,9.30
2023-02-22T18:34:57.966Z,9.14
2023-02-22T18:37:27.435Z,9.02
2023-02-22T18:39:54.903Z,9.15
2023-02-22T18:42:22.665Z,9.03
2023-02-22T18:44:49.815Z,8.90
2023-02-22T18:47:16.448Z,8.82
2023-02-22T18:49:42.868Z,8.75
2023-02-22T18:52:11.806Z,8.81
2023-02-22T18:54:39.137Z,8.88
2023-02-22T18:57:06.804Z,8.88
2023-02-22T18:59:33.554Z,8.78
2023-02-22T19:02:00.957Z,8.83
2023-02-22T19:04:27.315Z,8.73
2023-02-22T19:06:54.092Z,8.72
2023-02-22T19:09:20.501Z,8.79
2023-02-22T19:11:47.586Z,8.57
2023-02-22T19:14:16.629Z,8.49
2023-02-22T19:16:45.657Z,8.68
2023-02-22T19:19:12.793Z,8.76
2023-02-22T19:21:40.736Z,8.91
2023-02-22T19:24:07.763Z,8.91
2023-02-22T19:26:34.176Z,8.96
2023-02-22T19:29:04.994Z,8.96
2023-02-22T19:31:35.584Z,9.03
2023-02-22T19:34:05.314Z,8.99
2023-02-22T19:36:35.363Z,8.95
2023-02-22T19:39:02.003Z,8.87
2023-02-22T19:41:29.685Z,8.81
2023-02-22T19:43:56.952Z,8.78
2023-02-22T19:46:25.416Z,8.73
2023-02-22T19:48:54.795Z,8.89
2023-02-22T19:51:25.827Z,9.02
2023-02-22T19:53:53.594Z,8.93
2023-02-22T19:56:26.142Z,8.96
2023-02-22T19:58:54.651Z,8.90
2023-02-22T20:01:23.893Z,8.88
2023-02-22T20:03:53.503Z,8.83
2023-02-22T20:06:22.241Z,8.82
2023-02-22T20:08:50.276Z,8.76
2023-02-22T20:11:16.966Z,8.83
2023-02-22T20:13:43.710Z,8.81
2023-02-22T20:16:14.739Z,8.76
2023-02-22T20:18:41.814Z,8.70
2023-02-22T20:21:08.931Z,8.71
2023-02-22T20:23:36.218Z,8.81
2023-02-22T20:26:03.681Z,8.83
2023-02-22T20:28:30.083Z,8.76
2023-02-22T20:30:56.657Z,8.77
2023-02-22T20:33:23.354Z,8.78
2023-02-22T20:35:49.901Z,8.73
2023-02-22T20:38:18.512Z,8.78
2023-02-22T20:40:46.081Z,8.74
2023-02-22T20:43:12.700Z,8.77
2023-02-22T20:45:40.991Z,8.66
2023-02-22T20:48:07.760Z,8.73
2023-02-22T20:50:37.981Z,8.86
2023-02-22T20:53:07.596Z,8.85
2023-02-22T20:55:34.212Z,8.83
2023-02-22T20:58:01.401Z,8.74
2023-02-22T21:00:29.918Z,8.65
2023-02-22T21:02:56.520Z,8.54
2023-02-22T21:05:23.035Z,8.59
2023-02-22T21:07:49.588Z,8.43
2023-02-22T21:10:20.204Z,8.32
2023-02-22T21:12:47.282Z,8.45
2023-02-22T21:15:14.457Z,8.48
2023-02-22T21:17:46.842Z,8.46
2023-02-22T21:20:14.257Z,8.48
2023-02-22T21:22:41.716Z,8.42
2023-02-22T21:25:09.985Z,8.47
2023-02-22T21:27:38.151Z,8.57
2023-02-22T21:30:05.739Z,8.63
2023-02-22T21:32:33.960Z,8.72
2023-02-22T21:35:00.411Z,8.72
2023-02-22T21:37:27.331Z,8.59
2023-02-22T21:39:55.433Z,8.49
2023-02-22T21:42:21.952Z,8.44
2023-02-22T21:44:53.648Z,8.35
2023-02-22T21:47:20.064Z,8.38
2023-02-22T21:49:48.582Z,8.43
2023-02-22T21:52:15.693Z,8.54
2023-02-22T21:54:42.254Z,8.46
2023-02-22T21:57:08.886Z,8.29
2023-02-22T21:59:35.497Z,8.30
2023-02-22T22:02:05.374Z,8.27
2023-02-22T22:04:34.648Z,8.32
2023-02-22T22:07:03.208Z,8.36
2023-02-22T22:09:32.106Z,8.36
2023-02-22T22:12:02.072Z,8.33
2023-02-22T22:14:28.713Z,8.27
2023-02-22T22:16:57.808Z,8.08
2023-02-22T22:19:24.757Z,8.10
2023-02-22T22:21:53.199Z,8.15
2023-02-22T22:24:21.650Z,8.26
2023-02-22T22:26:50.312Z,8.26
2023-02-22T22:29:17.908Z,8.13
2023-02-22T22:31:44.758Z,8.09
2023-02-22T22:34:11.224Z,8.03
2023-02-22T22:36:37.989Z,7.95
2023-02-22T22:39:12.278Z,8.03
2023-02-22T22:41:39.743Z,8.12
2023-02-22T22:44:08.742Z,7.97
2023-02-22T22:46:38.898Z,8.00
2023-02-22T22:49:07.321Z,8.05
2023-02-22T22:51:33.831Z,8.08
2023-02-22T22:54:00.234Z,8.05
2023-02-22T22:56:27.015Z,8.13
2023-02-22T22:58:55.552Z,8.05
2023-02-22T23:01:32.012Z,8.03
2023-02-22T23:04:02.020Z,7.91
2023-02-22T23:06:32.010Z,7.83
2023-02-22T23:09:00.937Z,8.11
2023-02-22T23:11:29.033Z,8.24
2023-02-22T23:13:56.369Z,8.39
2023-02-22T23:16:23.517Z,8.43
2023-02-22T23:18:50.659Z,8.26
2023-02-22T23:21:18.389Z,8.23
2023-02-22T23:23:50.551Z,8.36
2023-02-22T23:26:17.527Z,8.33
2023-02-22T23:28:45.840Z,8.46
2023-02-22T23:31:15.896Z,8.54
2023-02-22T23:33:43.293Z,8.69
2023-02-22T23:36:11.640Z,8.48
2023-02-22T23:38:38.752Z,8.74
2023-02-22T23:41:08.175Z,8.74
2023-02-22T23:43:34.739Z,8.53
2023-02-22T23:46:03.052Z,8.65
2023-02-22T23:48:30.139Z,8.46
2023-02-22T23:50:58.423Z,8.39
2023-02-22T23:53:25.206Z,8.16
2023-02-22T23:55:52.126Z,8.21
2023-02-22T23:58:22.085Z,8.35
